Time;durP1;ratioP1;P1;durP2;ratioP2;P2;SDS_P1;SDS_P2;PMS_P1;PMS_P2;Temp;Humidity;BMP_temperature;BMP_pressure;BME280_temperature;BME280_humidity;BME280_pressure;Samples;Min_cycle;Max_cycle;Signal;HPM_P1;HPM_P2
2022/08/28 00:02:07;;;;;;;3.92;2.03;;;;;;;23.19;61.30;99331.09;5066842;28;20086;-84
2022/08/28 00:04:34;;;;;;;4.05;3.50;;;;;;;23.17;60.55;99350.03;5066281;28;20486;-83
2022/08/28 00:07:00;;;;;;;4.68;2.65;;;;;;;23.04;60.63;99346.50;5067086;28;20032;-83
2022/08/28 00:09:25;;;;;;;4.45;2.65;;;;;;;23.02;60.84;99353.81;5066172;28;20059;-84
2022/08/28 00:11:51;;;;;;;4.10;2.08;;;;;;;22.91;60.85;99357.28;5066931;28;20482;-84
2022/08/28 00:14:20;;;;;;;7.38;2.85;;;;;;;22.79;61.71;99358.16;5070399;28;20059;-84
2022/08/28 00:16:47;;;;;;;2.95;1.88;;;;;;;22.48;61.37;99307.41;5070842;28;20107;-84
2022/08/28 00:19:14;;;;;;;7.90;3.05;;;;;;;22.39;61.75;99328.72;5070466;28;20060;-84
2022/08/28 00:21:40;;;;;;;10.23;3.00;;;;;;;22.59;62.01;99341.59;5070688;28;20032;-84
2022/08/28 00:24:06;;;;;;;7.00;3.20;;;;;;;22.70;62.14;99363.19;5070744;28;20059;-84
2022/08/28 00:29:16;;;;;;;3.78;2.33;;;;;;;22.65;61.80;99343.84;5070079;28;20047;-83
2022/08/28 00:31:41;;;;;;;6.75;2.33;;;;;;;22.61;61.20;99328.03;5070474;28;20119;-84
2022/08/28 00:34:08;;;;;;;6.28;2.65;;;;;;;22.68;60.98;99358.91;5052412;28;20033;-84
2022/08/28 00:36:35;;;;;;;4.07;2.15;;;;;;;22.42;61.07;99320.44;5052541;28;20033;-84
2022/08/28 00:39:01;;;;;;;11.15;2.45;;;;;;;22.52;61.07;99351.94;5069486;28;20514;-84
2022/08/28 00:41:30;;;;;;;9.10;3.40;;;;;;;22.34;61.23;99329.03;5070391;28;20085;-84
2022/08/28 00:44:22;;;;;;;8.23;2.90;;;;;;;22.49;61.64;99345.88;5070025;28;20507;-84
2022/08/28 00:46:51;;;;;;;5.15;3.05;;;;;;;22.59;60.97;99359.56;5069449;28;20032;-85
2022/08/28 00:49:21;;;;;;;15.95;4.57;;;;;;;22.26;61.25;99326.84;5069729;28;20040;-84
2022/08/28 00:54:36;;;;;;;5.45;2.83;;;;;;;22.26;61.79;99360.88;5069474;28;20513;-84
2022/08/28 00:57:05;;;;;;;13.00;3.13;;;;;;;22.00;62.36;99325.94;5069339;28;20662;-84
2022/08/28 00:59:31;;;;;;;4.28;2.67;;;;;;;21.93;62.34;99320.13;5069595;28;20066;-85
2022/08/28 01:18:06;;;;;;;8.88;3.50;;;;;;;21.86;64.00;99350.16;5083947;27;20404;-85
2022/08/28 01:20:34;;;;;;;6.72;3.38;;;;;;;21.72;64.17;99333.19;5084373;28;20094;-83
2022/08/28 01:23:06;;;;;;;5.70;2.78;;;;;;;21.91;63.85;99351.59;5083267;28;20029;-83
2022/08/28 01:25:34;;;;;;;8.38;2.67;;;;;;;21.61;63.39;99300.81;5084391;28;20036;-83
2022/08/28 01:28:02;;;;;;;7.18;3.22;;;;;;;21.49;64.72;99326.66;5083573;28;20583;-84
2022/08/28 01:30:30;;;;;;;4.10;2.90;;;;;;;21.36;65.02;99298.88;5083405;28;20028;-83
2022/08/28 01:32:56;;;;;;;5.03;2.88;;;;;;;21.74;64.43;99347.34;5083764;28;20036;-83
2022/08/28 01:35:26;;;;;;;4.07;3.03;;;;;;;21.69;63.88;99328.03;5083868;28;20032;-83
2022/08/28 01:37:54;;;;;;;7.70;3.17;;;;;;;21.71;64.05;99339.50;5083593;28;20024;-83
2022/08/28 01:40:26;;;;;;;3.85;2.95;;;;;;;21.71;64.40;99347.56;5082095;28;20555;-83
2022/08/28 01:42:51;;;;;;;3.75;2.30;;;;;;;21.61;64.33;99322.28;5077386;28;20035;-83
2022/08/28 01:45:19;;;;;;;6.07;3.65;;;;;;;21.64;63.77;99328.31;5083199;28;20020;-84
2022/08/28 01:47:46;;;;;;;5.57;3.50;;;;;;;22.01;63.97;99410.91;5083623;28;20417;-83
2022/08/28 01:50:15;;;;;;;7.72;3.58;;;;;;;21.31;64.95;99292.97;5063365;28;20044;-82
2022/08/28 01:52:41;;;;;;;3.83;2.15;;;;;;;21.54;65.73;99335.25;5070469;28;20040;-83
2022/08/28 01:55:07;;;;;;;12.05;3.38;;;;;;;21.44;65.82;99323.38;5083245;28;20152;-82
2022/08/28 01:57:34;;;;;;;6.82;2.90;;;;;;;21.64;66.12;99348.91;5082080;28;20066;-83
2022/08/28 01:59:59;;;;;;;6.22;3.28;;;;;;;21.56;66.16;99327.97;5083452;28;20121;-82
2022/08/28 02:02:25;;;;;;;3.90;2.63;;;;;;;21.59;66.28;99345.69;5083797;28;20765;-82
2022/08/28 02:04:52;;;;;;;4.72;3.25;;;;;;;21.50;65.82;99303.38;5083396;28;20032;-83
2022/08/28 02:07:18;;;;;;;4.97;2.38;;;;;;;21.70;65.95;99359.25;5082292;28;20028;-82
2022/08/28 02:09:43;;;;;;;5.30;2.35;;;;;;;21.42;66.47;99315.41;5082291;28;20032;-81
2022/08/28 02:12:09;;;;;;;5.68;2.92;;;;;;;21.68;66.72;99346.91;5081898;28;20490;-83
2022/08/28 02:14:35;;;;;;;12.05;2.97;;;;;;;21.42;66.76;99291.28;5081975;28;20067;-82
2022/08/28 02:17:01;;;;;;;4.93;2.65;;;;;;;21.54;65.85;99332.56;5080718;28;20109;-82
2022/08/28 02:19:27;;;;;;;4.25;2.53;;;;;;;21.45;65.01;99325.94;5068320;28;20029;-82
2022/08/28 02:21:52;;;;;;;5.35;3.05;;;;;;;21.37;64.57;99346.22;5069164;28;20482;-82
2022/08/28 02:24:19;;;;;;;4.72;3.15;;;;;;;21.08;65.09;99360.53;5069095;28;20115;-84
2022/08/28 02:26:44;;;;;;;7.07;3.22;;;;;;;20.69;64.68;99283.53;5069648;28;20433;-83
2022/08/28 02:29:11;;;;;;;3.13;2.38;;;;;;;21.28;65.11;99388.75;5069234;28;20039;-83
2022/08/28 02:31:37;;;;;;;8.40;3.88;;;;;;;20.87;64.87;99297.59;5068836;28;20056;-83
2022/08/28 02:34:04;;;;;;;4.45;2.67;;;;;;;21.28;63.82;99345.84;5069026;28;20107;-83
2022/08/28 02:36:30;;;;;;;5.63;3.08;;;;;;;21.40;63.31;99335.28;5069354;28;20040;-83
2022/08/28 02:38:56;;;;;;;3.67;2.65;;;;;;;21.73;62.52;99355.50;5068984;28;20036;-82
2022/08/28 02:41:22;;;;;;;8.15;3.72;;;;;;;21.58;62.35;99309.06;5069316;28;20410;-83
2022/08/28 02:43:47;;;;;;;8.10;2.65;;;;;;;22.06;62.74;99376.56;5068918;28;20033;-82
2022/08/28 02:46:13;;;;;;;7.32;3.45;;;;;;;21.75;63.79;99354.44;5068949;28;20875;-82
2022/08/28 02:48:39;;;;;;;5.43;2.30;;;;;;;21.67;63.70;99348.72;5069042;28;20036;-83
2022/08/28 02:51:12;;;;;;;6.10;3.65;;;;;;;22.09;64.12;99413.94;5068830;28;20475;-82
2022/08/28 02:53:38;;;;;;;3.88;2.53;;;;;;;21.77;64.31;99357.88;5068087;28;20043;-82
2022/08/28 02:56:04;;;;;;;4.85;2.33;;;;;;;21.73;64.32;99339.41;5068838;28;20478;-83
2022/08/28 02:58:31;;;;;;;7.60;3.33;;;;;;;21.86;64.26;99395.81;5068833;28;20036;-83
2022/08/28 03:01:03;;;;;;;17.95;3.83;;;;;;;21.66;64.83;99376.53;5069155;28;20068;-83
2022/08/28 03:03:32;;;;;;;5.15;3.33;;;;;;;21.25;65.42;99311.16;5068404;28;20170;-83
2022/08/28 03:05:59;;;;;;;14.30;4.18;;;;;;;21.81;64.88;99366.59;5068396;28;20040;-83
2022/08/28 03:08:25;;;;;;;6.05;3.08;;;;;;;21.60;65.40;99368.88;5068664;28;20044;-83
2022/08/28 03:10:51;;;;;;;5.85;3.53;;;;;;;21.72;65.40;99392.25;5068167;28;20063;-84
2022/08/28 03:13:17;;;;;;;4.95;2.25;;;;;;;21.28;66.07;99367.28;5068446;28;20541;-82
2022/08/28 03:15:43;;;;;;;5.50;2.75;;;;;;;21.27;66.35;99365.59;5068151;28;20429;-84
2022/08/28 03:18:10;;;;;;;4.18;2.85;;;;;;;21.11;66.74;99329.97;5068325;28;20147;-83
2022/08/28 03:20:36;;;;;;;5.50;2.95;;;;;;;21.36;66.30;99368.63;5067118;28;20035;-84
2022/08/28 03:25:45;;;;;;;6.82;3.22;;;;;;;21.01;66.98;99386.03;5068661;28;20067;-83
2022/08/28 03:28:11;;;;;;;4.97;2.95;;;;;;;20.97;67.15;99365.72;5067429;28;20064;-84
2022/08/28 03:30:37;;;;;;;9.65;3.58;;;;;;;21.08;67.42;99387.34;5067343;28;20029;-83
2022/08/28 03:33:03;;;;;;;5.43;2.92;;;;;;;20.88;66.80;99363.63;5068013;28;20032;-83
2022/08/28 03:35:28;;;;;;;4.30;2.55;;;;;;;20.80;67.39;99339.97;5066067;28;20037;-83
2022/08/28 03:37:54;;;;;;;5.70;3.17;;;;;;;20.77;67.43;99350.88;5053312;28;20029;-83
2022/08/28 03:40:20;;;;;;;3.15;2.03;;;;;;;21.02;66.96;99384.19;5067858;28;20567;-83
2022/08/28 03:42:45;;;;;;;5.35;3.13;;;;;;;20.91;66.86;99347.34;5068261;28;20551;-82
2022/08/28 03:45:11;;;;;;;6.30;3.38;;;;;;;21.19;66.37;99375.06;5067952;28;20545;-83
2022/08/28 03:47:39;;;;;;;4.22;2.72;;;;;;;21.41;66.40;99396.00;5066282;28;20090;-82
2022/08/28 03:50:05;;;;;;;12.85;4.25;;;;;;;21.03;66.25;99369.84;5067440;28;20029;-83
2022/08/28 03:52:31;;;;;;;4.03;2.40;;;;;;;21.01;65.87;99382.50;5067141;28;20036;-83
2022/08/28 03:54:58;;;;;;;25.42;4.32;;;;;;;20.91;65.87;99409.00;5067371;28;20512;-83
2022/08/28 03:57:23;;;;;;;6.53;3.47;;;;;;;20.80;66.12;99392.72;5067546;28;20033;-85
2022/08/28 03:59:51;;;;;;;5.72;2.95;;;;;;;20.91;66.62;99414.38;5066320;28;20041;-84
2022/08/28 04:02:19;;;;;;;3.65;2.38;;;;;;;21.09;66.79;99431.13;5064781;28;20039;-84
2022/08/28 04:04:49;;;;;;;7.03;2.28;;;;;;;20.72;66.61;99361.06;5049758;28;20036;-84
2022/08/28 04:07:16;;;;;;;13.95;3.53;;;;;;;20.81;66.53;99376.56;5066529;28;20090;-85
2022/08/28 04:09:42;;;;;;;6.50;3.20;;;;;;;20.97;65.73;99400.56;5067612;28;20036;-84
2022/08/28 04:12:08;;;;;;;4.65;2.58;;;;;;;21.06;65.17;99409.88;5066889;28;20060;-87
2022/08/28 04:14:34;;;;;;;6.55;3.13;;;;;;;21.39;64.98;99457.81;5067641;28;20043;-84
2022/08/28 04:17:00;;;;;;;3.95;2.85;;;;;;;21.22;65.01;99401.69;5066645;28;20596;-84
2022/08/28 04:19:26;;;;;;;4.55;2.28;;;;;;;21.09;65.81;99381.03;5067549;28;20044;-84
2022/08/28 04:21:52;;;;;;;6.03;2.83;;;;;;;21.10;66.61;99387.25;5067223;28;20052;-84
2022/08/28 04:24:17;;;;;;;5.13;3.28;;;;;;;21.46;65.47;99452.94;5067027;28;20090;-84
2022/08/28 04:26:43;;;;;;;6.05;3.03;;;;;;;21.27;64.85;99410.31;5067361;28;20457;-84
2022/08/28 04:29:08;;;;;;;6.32;3.33;;;;;;;21.41;64.42;99417.47;5065781;28;20032;-84
2022/08/28 04:31:34;;;;;;;6.70;2.90;;;;;;;21.68;65.23;99438.16;5065839;28;20044;-84
2022/08/28 04:34:01;;;;;;;4.78;2.95;;;;;;;21.61;65.27;99408.16;5066981;28;20066;-83
2022/08/28 04:36:27;;;;;;;4.35;2.83;;;;;;;21.64;65.61;99430.31;5065456;28;20086;-84
2022/08/28 04:38:53;;;;;;;5.55;2.67;;;;;;;21.66;65.12;99405.19;5067100;28;20490;-84
2022/08/28 04:41:19;;;;;;;6.95;3.08;;;;;;;21.99;64.70;99447.75;5065648;28;20093;-84
2022/08/28 04:43:45;;;;;;;6.57;3.45;;;;;;;21.90;64.53;99424.19;5059000;28;20044;-84
2022/08/28 04:46:13;;;;;;;7.90;3.83;;;;;;;21.89;65.04;99409.91;5064954;28;20036;-84
2022/08/28 04:48:40;;;;;;;4.68;3.40;;;;;;;22.11;65.14;99413.84;5065273;28;20051;-84
2022/08/28 04:51:08;;;;;;;15.85;4.32;;;;;;;22.24;65.09;99433.53;5065477;28;20040;-85
2022/08/28 04:53:35;;;;;;;6.20;3.63;;;;;;;22.19;65.42;99424.91;5066707;28;20037;-85
2022/08/28 04:56:06;;;;;;;4.10;2.53;;;;;;;22.25;66.04;99434.41;5065275;28;20028;-83
2022/08/28 04:58:33;;;;;;;10.38;4.38;;;;;;;22.11;66.04;99381.63;5064686;28;20032;-84
2022/08/28 05:01:05;;;;;;;6.82;2.70;;;;;;;22.56;65.62;99438.56;5056733;28;20462;-83
2022/08/28 05:03:31;;;;;;;4.72;3.58;;;;;;;22.56;64.80;99429.66;5065449;28;20387;-83
2022/08/28 05:05:57;;;;;;;6.55;4.38;;;;;;;22.64;63.45;99392.34;5057262;28;20021;-84
2022/08/28 05:08:25;;;;;;;6.82;3.83;;;;;;;23.08;63.42;99439.44;5047875;28;20409;-84
2022/08/28 05:10:51;;;;;;;7.53;4.93;;;;;;;23.37;61.73;99469.69;5057555;28;20468;-85
2022/08/28 05:13:18;;;;;;;7.05;3.40;;;;;;;22.88;58.19;99403.22;5064154;28;20112;-84
2022/08/28 05:15:47;;;;;;;7.50;4.75;;;;;;;23.01;57.40;99381.66;5053500;28;20029;-85
2022/08/28 05:18:14;;;;;;;4.68;2.38;;;;;;;23.31;56.53;99435.16;5046546;28;20061;-86
2022/08/28 05:20:43;;;;;;;8.63;2.67;;;;;;;23.26;56.03;99388.00;5051148;28;20044;-85
2022/08/28 05:23:17;;;;;;;10.82;3.00;;;;;;;24.02;54.75;99482.97;5080573;28;20032;-87
2022/08/28 05:25:46;;;;;;;5.10;3.55;;;;;;;23.77;55.52;99452.44;5045305;28;20037;-88
2022/08/28 05:28:15;;;;;;;10.43;4.00;;;;;;;23.91;54.40;99451.44;5056092;28;20037;-88
2022/08/28 05:30:42;;;;;;;7.15;2.80;;;;;;;24.32;53.87;99496.00;5065788;28;20029;-86
2022/08/28 05:33:09;;;;;;;6.50;4.03;;;;;;;24.13;53.76;99438.09;5065898;28;20043;-87
2022/08/28 05:35:37;;;;;;;4.10;2.55;;;;;;;24.05;55.18;99450.44;5064819;28;20051;-87
2022/08/28 05:38:04;;;;;;;7.28;3.55;;;;;;;23.74;55.55;99413.16;5066688;28;20032;-89
2022/08/28 05:40:30;;;;;;;6.85;2.30;;;;;;;24.29;54.72;99432.41;5066501;28;20029;-86
2022/08/28 05:42:56;;;;;;;5.50;2.88;;;;;;;24.49;54.41;99428.19;5065744;28;20040;-87
2022/08/28 05:45:22;;;;;;;4.35;2.90;;;;;;;24.68;53.29;99453.75;5064649;28;20434;-87
2022/08/28 05:47:48;;;;;;;15.50;3.67;;;;;;;24.79;53.64;99443.00;5063016;28;20033;-87
2022/08/28 05:50:13;;;;;;;9.05;3.03;;;;;;;24.76;54.83;99467.50;5049371;28;20033;-86
2022/08/28 05:52:41;;;;;;;6.13;3.40;;;;;;;24.74;55.56;99420.06;5058503;28;20546;-87
2022/08/28 05:55:08;;;;;;;8.65;3.28;;;;;;;24.84;54.82;99445.34;5070010;28;20036;-88
2022/08/28 05:57:34;;;;;;;5.32;3.47;;;;;;;24.98;54.73;99455.91;5048172;28;20428;-88
2022/08/28 06:00:01;;;;;;;9.23;4.80;;;;;;;25.11;54.96;99461.16;5049677;28;20041;-89
2022/08/28 06:02:26;;;;;;;9.45;4.00;;;;;;;24.90;54.42;99412.50;5066892;28;20033;-88
2022/08/28 06:04:53;;;;;;;5.07;3.10;;;;;;;25.02;54.56;99446.59;5069371;28;20029;-88
2022/08/28 06:07:19;;;;;;;6.20;4.05;;;;;;;25.26;55.74;99460.94;5067875;28;20127;-88
2022/08/28 06:09:44;;;;;;;6.78;3.38;;;;;;;25.55;53.13;99464.88;5069464;28;20201;-89
2022/08/28 06:12:10;;;;;;;7.47;3.45;;;;;;;25.65;53.18;99473.09;5069192;28;20036;-91
2022/08/28 06:14:35;;;;;;;4.00;2.97;;;;;;;25.35;52.46;99428.69;5068469;28;20059;-87
2022/08/28 06:17:02;;;;;;;5.32;2.63;;;;;;;25.79;52.91;99447.66;5069642;28;20055;-88
2022/08/28 06:19:30;;;;;;;6.43;2.85;;;;;;;25.94;52.84;99464.44;5069903;28;20043;-90
2022/08/28 06:22:00;;;;;;;8.27;3.20;;;;;;;26.11;50.53;99417.13;5067818;28;20105;-90
2022/08/28 06:24:27;;;;;;;4.80;3.15;;;;;;;26.14;50.78;99440.34;5060957;28;20124;-90
2022/08/28 06:26:53;;;;;;;6.32;2.97;;;;;;;25.96;50.56;99450.81;5049842;28;20033;-89
2022/08/28 06:29:19;;;;;;;6.60;2.47;;;;;;;26.31;48.22;99452.44;5057462;28;20036;-89
2022/08/28 06:31:45;;;;;;;6.03;3.38;;;;;;;26.79;48.90;99487.97;5069825;28;20036;-88
2022/08/28 06:34:12;;;;;;;3.38;2.20;;;;;;;26.93;48.27;99480.53;5068647;28;20037;-86
2022/08/28 06:36:40;;;;;;;5.40;3.00;;;;;;;26.97;48.19;99434.13;5068472;28;20037;-87
2022/08/28 06:39:08;;;;;;;21.35;4.95;;;;;;;27.83;45.65;99511.44;5067622;28;20035;-89
2022/08/28 06:41:39;;;;;;;11.55;3.63;;;;;;;27.48;47.27;99450.44;5067574;28;20048;-86
2022/08/28 06:44:06;;;;;;;6.07;2.53;;;;;;;27.50;46.44;99451.19;5068069;28;20083;-88
2022/08/28 06:46:34;;;;;;;6.82;2.85;;;;;;;28.12;45.50;99464.59;5068843;28;20036;-88
2022/08/28 06:49:01;;;;;;;22.52;10.45;;;;;;;28.36;44.11;99477.72;5066477;28;20025;-88
2022/08/28 06:51:50;;;;;;;15.18;4.70;;;;;;;28.53;43.15;99436.34;5069256;28;20521;-85
2022/08/28 06:54:16;;;;;;;4.78;3.08;;;;;;;28.89;42.10;99457.44;5068954;28;20494;-86
2022/08/28 06:56:45;;;;;;;8.05;3.63;;;;;;;28.80;41.80;99472.72;5064565;28;20044;-83
2022/08/28 06:59:19;;;;;;;5.80;3.13;;;;;;;28.28;43.31;99407.94;5071216;28;20025;-88
2022/08/28 07:01:48;;;;;;;8.85;2.97;;;;;;;28.87;42.28;99444.00;5071517;28;20522;-88
2022/08/28 07:04:22;;;;;;;4.97;3.22;;;;;;;29.18;41.54;99451.03;5070730;28;20094;-89
2022/08/28 07:06:49;;;;;;;7.90;3.28;;;;;;;29.55;41.28;99463.78;5069672;28;20032;-91
2022/08/28 07:09:15;;;;;;;5.13;3.03;;;;;;;29.48;41.29;99439.09;5069277;28;20037;-87
2022/08/28 07:11:45;;;;;;;7.50;2.63;;;;;;;29.60;40.75;99443.31;5069900;28;20119;-86
2022/08/28 07:14:11;;;;;;;7.47;3.00;;;;;;;29.61;41.32;99468.59;5071410;28;20028;-87
2022/08/28 07:16:39;;;;;;;8.48;3.33;;;;;;;29.49;40.45;99404.59;5069702;28;20055;-87
2022/08/28 07:19:10;;;;;;;6.38;2.45;;;;;;;29.94;41.42;99452.72;5070908;28;20060;-87
2022/08/28 07:21:40;;;;;;;7.30;2.40;;;;;;;30.22;42.06;99436.34;5070320;28;20040;-85
2022/08/28 07:24:09;;;;;;;6.10;3.47;;;;;;;30.67;39.66;99496.09;5070814;28;20056;-89
2022/08/28 07:26:39;;;;;;;11.25;3.17;;;;;;;30.13;39.15;99463.44;5069154;28;20557;-85
2022/08/28 07:29:06;;;;;;;6.50;2.67;;;;;;;30.11;39.15;99440.16;5065480;28;20093;-85
2022/08/28 07:31:32;;;;;;;7.15;3.47;;;;;;;30.51;39.54;99450.56;5068736;28;20028;-85
2022/08/28 07:33:58;;;;;;;7.20;2.45;;;;;;;30.78;38.35;99472.38;5069232;28;20020;-85
2022/08/28 07:36:26;;;;;;;6.07;3.72;;;;;;;30.70;38.70;99418.72;5069199;28;20040;-86
2022/08/28 07:38:53;;;;;;;3.20;2.30;;;;;;;31.22;39.15;99469.63;5069769;28;20067;-87
2022/08/28 07:41:23;;;;;;;3.67;2.05;;;;;;;31.50;38.30;99472.16;5068563;28;20036;-86
2022/08/28 07:46:33;;;;;;;8.10;2.75;;;;;;;31.33;38.00;99428.47;5070091;28;20040;-86
2022/08/28 07:48:58;;;;;;;5.50;2.40;;;;;;;31.41;37.66;99444.00;5070798;28;20028;-86
2022/08/28 07:51:25;;;;;;;4.10;3.10;;;;;;;31.32;39.47;99439.53;5070454;28;20032;-87
2022/08/28 07:53:52;;;;;;;6.93;2.25;;;;;;;31.74;37.26;99439.53;5069273;28;20491;-88
2022/08/28 07:56:19;;;;;;;7.13;3.35;;;;;;;31.50;38.99;99414.94;5068460;28;20089;-87
2022/08/28 07:58:45;;;;;;;3.55;2.45;;;;;;;31.98;39.74;99437.91;5069533;28;20056;-87
2022/08/28 08:01:10;;;;;;;4.13;2.47;;;;;;;31.89;36.57;99426.13;5068360;28;20119;-86
2022/08/28 08:03:36;;;;;;;3.55;2.00;;;;;;;32.41;36.95;99452.31;5069242;28;20134;-86
2022/08/28 08:06:04;;;;;;;2.97;1.80;;;;;;;32.42;37.88;99458.63;5068845;28;20036;-87
2022/08/28 08:08:32;;;;;;;6.80;2.83;;;;;;;32.34;34.35;99434.91;5068081;28;20036;-86
2022/08/28 08:11:10;;;;;;;6.47;2.65;;;;;;;32.65;33.09;99396.03;5068360;28;20067;-85
2022/08/28 08:13:38;;;;;;;3.88;2.38;;;;;;;32.15;35.07;99427.91;5068417;28;20121;-87
2022/08/28 08:16:10;;;;;;;7.45;2.10;;;;;;;32.26;34.77;99413.94;5069136;28;20094;-88
2022/08/28 08:18:38;;;;;;;3.45;2.15;;;;;;;32.12;32.76;99422.78;5068489;28;20037;-86
2022/08/28 08:21:06;;;;;;;7.22;2.15;;;;;;;32.51;34.60;99448.56;5068198;28;20032;-86
2022/08/28 08:23:33;;;;;;;1.77;1.40;;;;;;;32.83;33.12;99436.78;5068466;28;20501;-87
2022/08/28 08:26:03;;;;;;;2.97;1.83;;;;;;;33.19;35.15;99431.75;5068640;28;20454;-87
2022/08/28 08:28:29;;;;;;;3.97;2.45;;;;;;;33.19;32.97;99480.94;5068729;28;20135;-88
2022/08/28 08:31:25;;;;;;;6.70;2.55;;;;;;;33.39;32.63;99446.91;5068077;28;20037;-86
2022/08/28 08:33:54;;;;;;;4.80;2.88;;;;;;;33.47;32.91;99423.09;5068152;28;20079;-88
2022/08/28 08:36:22;;;;;;;6.40;2.28;;;;;;;33.58;32.62;99421.03;5068967;28;20086;-85
2022/08/28 08:38:49;;;;;;;5.85;2.60;;;;;;;33.34;32.85;99418.22;5069267;28;20085;-86
2022/08/28 08:41:27;;;;;;;6.38;2.67;;;;;;;33.27;33.14;99479.22;5067816;28;20052;-85
2022/08/28 08:44:00;;;;;;;8.40;2.47;;;;;;;33.57;34.34;99468.53;5069063;28;20033;-85
2022/08/28 08:46:54;;;;;;;2.83;1.70;;;;;;;33.10;32.98;99431.94;5068432;28;20119;-85
2022/08/28 08:49:24;;;;;;;6.63;2.35;;;;;;;33.34;35.99;99466.56;5069894;28;20032;-87
2022/08/28 08:52:12;;;;;;;5.18;2.30;;;;;;;33.98;33.30;99466.44;5067966;28;20048;-86
2022/08/28 08:55:01;;;;;;;4.53;2.47;;;;;;;33.93;32.75;99441.53;5067691;28;20119;-88
2022/08/28 08:57:27;;;;;;;8.05;3.38;;;;;;;33.98;31.76;99406.28;5066116;28;20036;-87
2022/08/28 08:59:53;;;;;;;3.65;2.33;;;;;;;33.86;35.43;99399.50;5067718;28;20093;-87
2022/08/28 09:02:26;;;;;;;5.18;3.08;;;;;;;33.95;34.12;99455.03;5201742;22;20120;-87
2022/08/28 09:05:06;;;;;;;4.85;2.45;;;;;;;33.11;33.80;99426.31;5047916;28;20032;-88
2022/08/28 09:07:52;;;;;;;3.88;2.42;;;;;;;32.91;33.47;99406.72;5047359;28;20044;-88
2022/08/28 09:10:18;;;;;;;3.45;2.30;;;;;;;33.10;33.12;99382.75;5047727;28;20033;-88
2022/08/28 09:13:00;;;;;;;4.68;2.63;;;;;;;32.52;33.94;99391.06;5048043;28;20993;-88
2022/08/28 09:15:28;;;;;;;7.20;2.35;;;;;;;33.33;33.75;99449.31;5047992;28;20033;-88
2022/08/28 09:18:24;;;;;;;5.20;2.17;;;;;;;33.60;33.15;99438.97;5048252;28;20035;-88
2022/08/28 09:20:56;;;;;;;9.75;2.30;;;;;;;33.45;32.09;99397.00;5047374;28;20106;-88
2022/08/28 09:23:23;;;;;;;4.53;2.17;;;;;;;32.96;31.84;99352.41;5047962;28;20040;-90
2022/08/28 09:25:49;;;;;;;3.30;2.00;;;;;;;33.48;32.90;99435.75;5049636;28;20112;-89
2022/08/28 09:28:30;;;;;;;6.22;2.20;;;;;;;33.26;36.02;99368.22;5050859;28;20136;-88
2022/08/28 09:31:04;;;;;;;12.18;2.80;;;;;;;33.69;32.97;99428.81;5051907;28;20037;-88
2022/08/28 09:33:37;;;;;;;3.85;1.98;;;;;;;33.06;34.42;99367.75;5051509;28;20036;-88
2022/08/28 09:36:24;;;;;;;4.55;1.98;;;;;;;33.63;32.50;99443.19;5050978;28;20495;-88
2022/08/28 09:39:06;;;;;;;5.07;2.63;;;;;;;33.02;34.38;99395.41;5052797;28;20086;-88
2022/08/28 09:44:24;;;;;;;5.03;2.15;;;;;;;33.23;32.66;99371.28;5053013;28;20044;-87
2022/08/28 09:46:51;;;;;;;2.80;1.92;;;;;;;33.60;31.02;99361.53;5053552;28;20033;-89
2022/08/28 09:49:25;;;;;;;3.10;2.00;;;;;;;33.72;29.73;99365.59;5034753;28;20086;-86
2022/08/28 09:51:50;;;;;;;6.85;2.28;;;;;;;33.83;30.07;99367.06;5051418;28;20033;-86
2022/08/28 09:54:41;;;;;;;5.72;2.95;;;;;;;33.70;30.57;99379.41;5051369;28;20467;-86
2022/08/28 09:57:07;;;;;;;4.03;1.67;;;;;;;33.82;31.37;99359.91;5051892;28;20032;-86
2022/08/28 09:59:32;;;;;;;5.88;2.38;;;;;;;34.32;30.31;99426.91;5049942;28;20035;-85
2022/08/28 10:02:10;;;;;;;4.43;2.17;;;;;;;34.15;30.68;99348.69;5050887;28;20051;-86
2022/08/28 10:05:00;;;;;;;3.65;2.38;;;;;;;34.10;32.89;99411.34;5067641;28;20418;-88
2022/08/28 10:07:56;;;;;;;4.30;2.05;;;;;;;34.40;30.19;99415.03;5051940;28;20020;-88
2022/08/28 10:10:52;;;;;;;6.70;2.28;;;;;;;34.39;32.19;99405.16;5051641;28;20029;-90
2022/08/28 10:14:03;;;;;;;9.07;2.80;;;;;;;34.00;32.77;99382.34;5052217;28;20486;-89
2022/08/28 10:16:42;;;;;;;5.45;2.85;;;;;;;33.62;30.87;99359.50;5040936;28;20048;-88
2022/08/28 10:19:46;;;;;;;6.57;2.83;;;;;;;34.03;32.26;99400.25;5033486;28;20468;-89
2022/08/28 10:22:39;;;;;;;3.60;2.35;;;;;;;33.14;33.55;99324.88;5032208;28;20047;-88
2022/08/28 10:25:22;;;;;;;5.72;2.22;;;;;;;34.05;34.17;99384.53;5032577;28;20029;-86
2022/08/28 10:28:06;;;;;;;2.97;1.92;;;;;;;34.24;30.11;99402.34;5049565;28;20158;-88
2022/08/28 10:30:38;;;;;;;4.03;2.80;;;;;;;33.30;30.72;99314.91;5049823;28;20517;-87
2022/08/28 10:33:16;;;;;;;7.72;3.25;;;;;;;33.43;34.12;99391.72;5049865;28;20073;-88
2022/08/28 10:35:56;;;;;;;4.60;2.15;;;;;;;33.60;31.13;99367.88;5049861;28;20029;-88
2022/08/28 10:38:45;;;;;;;3.30;1.98;;;;;;;33.77;30.79;99324.03;5048987;28;20111;-88
2022/08/28 10:41:34;;;;;;;4.63;2.67;;;;;;;33.65;29.82;99338.09;5049876;28;20029;-88
2022/08/28 10:44:02;;;;;;;3.35;2.40;;;;;;;33.52;30.26;99313.22;5049672;28;20510;-87
2022/08/28 10:46:41;;;;;;;8.60;2.55;;;;;;;33.88;29.72;99323.63;5031356;28;20044;-90
2022/08/28 10:49:21;;;;;;;5.65;2.47;;;;;;;34.30;28.87;99379.72;5049512;28;20029;-88
2022/08/28 10:51:55;;;;;;;2.88;1.63;;;;;;;34.08;30.77;99302.91;5049142;28;20040;-87
2022/08/28 10:54:27;;;;;;;3.88;2.05;;;;;;;34.48;30.00;99367.59;5030985;28;20476;-89
2022/08/28 10:57:08;;;;;;;4.10;1.67;;;;;;;34.56;28.52;99326.44;5048879;28;20033;-88
2022/08/28 10:59:35;;;;;;;3.78;2.05;;;;;;;34.55;29.73;99335.69;5049422;28;20033;-88
2022/08/28 11:02:05;;;;;;;6.00;2.10;;;;;;;34.60;28.24;99331.38;5048964;28;20136;-89
2022/08/28 11:04:31;;;;;;;8.27;2.55;;;;;;;34.54;28.41;99292.91;5031176;28;20518;-88
2022/08/28 11:07:02;;;;;;;4.82;2.05;;;;;;;34.40;28.73;99291.88;5064118;28;20507;-88
2022/08/28 11:09:32;;;;;;;6.10;1.60;;;;;;;34.71;28.00;99359.31;5048401;28;20030;-89
2022/08/28 11:12:14;;;;;;;4.00;1.92;;;;;;;34.25;28.27;99276.28;5049031;28;20450;-88
2022/08/28 11:14:42;;;;;;;3.00;1.67;;;;;;;34.13;28.21;99285.94;5049282;28;20056;-88
2022/08/28 11:17:24;;;;;;;4.38;2.65;;;;;;;34.77;29.03;99353.97;5030778;28;20210;-88
2022/08/28 11:20:10;;;;;;;7.13;2.28;;;;;;;34.64;27.34;99331.81;5030393;28;20182;-89
2022/08/28 11:22:44;;;;;;;10.57;2.88;;;;;;;34.46;26.81;99290.28;5048840;28;20063;-90
2022/08/28 11:25:19;;;;;;;2.30;1.42;;;;;;;34.66;30.50;99285.09;5048756;28;20040;-90
2022/08/28 11:28:03;;;;;;;;;;;;;;;35.09;27.32;99340.91;5031147;28;20525;-89
2022/08/28 11:30:34;;;;;;;3.28;1.67;;;;;;;34.84;26.21;99306.66;5048710;28;19920;-88
2022/08/28 11:33:03;;;;;;;10.02;1.98;;;;;;;34.70;26.10;99314.63;5064392;28;20128;-89
2022/08/28 11:35:29;;;;;;;6.93;1.98;;;;;;;34.94;27.87;99342.81;5031224;28;20526;-88
2022/08/28 11:37:56;;;;;;;1.90;1.55;;;;;;;34.99;27.44;99321.19;5048825;28;20060;-88
2022/08/28 11:40:31;;;;;;;4.03;0.98;;;;;;;35.32;24.80;99323.53;5048816;28;20061;-90
2022/08/28 11:43:14;;;;;;;2.78;1.83;;;;;;;35.37;25.94;99336.66;5031067;28;20848;-91
2022/08/28 11:45:44;;;;;;;3.05;1.98;;;;;;;35.18;24.88;99335.34;5048443;28;20032;-87
2022/08/28 11:48:22;;;;;;;1.73;1.13;;;;;;;35.25;22.53;99333.50;5049157;28;20032;-88
2022/08/28 11:50:57;;;;;;;4.13;1.95;;;;;;;35.09;20.60;99308.03;5047993;28;20040;-89
2022/08/28 11:53:37;;;;;;;1.42;0.98;;;;;;;35.01;24.21;99327.31;5049179;28;20061;-88
2022/08/28 11:56:24;;;;;;;4.85;1.70;;;;;;;35.20;24.38;99320.38;5031641;28;20029;-88
2022/08/28 11:59:09;;;;;;;4.35;1.95;;;;;;;35.27;21.47;99299.44;5031414;28;20131;-87
2022/08/28 12:01:35;;;;;;;2.75;1.50;;;;;;;35.20;21.02;99286.66;5049309;28;20052;-91
2022/08/28 12:04:05;;;;;;;5.63;1.73;;;;;;;35.02;22.40;99287.94;5154849;22;20055;-87
2022/08/28 12:06:48;;;;;;;2.17;1.20;;;;;;;34.85;23.43;99256.28;5085290;28;20071;-88
2022/08/28 12:09:25;;;;;;;2.35;1.17;;;;;;;35.48;27.93;99320.56;5065053;28;20503;-90
2022/08/28 12:11:57;;;;;;;4.03;1.45;;;;;;;35.08;22.98;99264.38;5068789;28;20039;-88
2022/08/28 12:14:26;;;;;;;2.45;1.77;;;;;;;35.47;24.73;99318.00;5051518;28;20109;-89
2022/08/28 12:16:58;;;;;;;2.17;1.33;;;;;;;35.66;24.54;99316.50;5070091;28;20063;-90
2022/08/28 12:19:35;;;;;;;11.85;2.10;;;;;;;35.31;23.62;99240.44;5068917;28;20114;-88